createdAt,value
2019-06-26T00:00:36.549Z,58.12
2019-06-26T00:03:07.334Z,57.47
2019-06-26T00:05:36.905Z,57.83
2019-06-26T00:08:06.667Z,58.38
2019-06-26T00:10:36.296Z,59.20
2019-06-26T00:13:05.950Z,59.27
2019-06-26T00:15:35.535Z,59.35
2019-06-26T00:18:06.234Z,58.59
2019-06-26T00:20:35.832Z,58.22
2019-06-26T00:23:05.413Z,58.37
2019-06-26T00:25:34.999Z,58.28
2019-06-26T00:28:04.672Z,58.16
2019-06-26T00:30:34.271Z,57.28
2019-06-26T00:33:03.847Z,56.86
2019-06-26T00:35:33.573Z,56.70
2019-06-26T00:38:03.166Z,57.21
2019-06-26T00:40:32.760Z,58.84
2019-06-26T00:43:02.350Z,58.69
2019-06-26T00:45:31.915Z,57.15
2019-06-26T00:48:01.508Z,57.68
2019-06-26T00:50:31.085Z,57.75
2019-06-26T00:53:00.694Z,57.93
2019-06-26T00:55:30.268Z,57.70
2019-06-26T00:57:59.847Z,58.29
2019-06-26T01:00:34.024Z,57.85
2019-06-26T01:03:03.598Z,58.33
2019-06-26T01:05:33.175Z,58.57
2019-06-26T01:08:02.771Z,58.72
2019-06-26T01:10:32.342Z,58.07
2019-06-26T01:13:03.498Z,58.26
2019-06-26T01:15:33.074Z,58.00
2019-06-26T01:18:02.670Z,58.83
2019-06-26T01:20:32.241Z,59.08
2019-06-26T01:23:02.964Z,58.70
2019-06-26T01:25:32.535Z,59.17
2019-06-26T01:28:02.122Z,59.43
2019-06-26T01:30:31.703Z,59.05
2019-06-26T01:33:01.283Z,59.20
2019-06-26T01:35:30.951Z,59.37
2019-06-26T01:38:00.521Z,59.98
2019-06-26T01:40:30.152Z,59.63
2019-06-26T01:42:59.702Z,60.34
2019-06-26T01:45:29.282Z,60.45
2019-06-26T01:47:58.866Z,60.74
2019-06-26T01:50:28.445Z,60.81
2019-06-26T01:52:58.030Z,61.50
2019-06-26T01:55:27.611Z,60.31
2019-06-26T01:57:57.196Z,60.40
2019-06-26T02:00:27.106Z,59.77
2019-06-26T02:02:58.038Z,59.48
2019-06-26T02:05:27.654Z,59.70
2019-06-26T02:07:57.215Z,59.24
2019-06-26T02:10:26.809Z,59.33
2019-06-26T02:12:56.509Z,60.24
2019-06-26T02:15:26.215Z,61.06
2019-06-26T02:17:55.795Z,59.55
2019-06-26T02:20:25.413Z,60.89
2019-06-26T02:22:55.019Z,60.24
2019-06-26T02:25:24.639Z,61.00
2019-06-26T02:27:54.261Z,61.37
2019-06-26T02:30:23.836Z,60.87
2019-06-26T02:32:53.425Z,61.16
2019-06-26T02:35:23.016Z,62.67
2019-06-26T02:37:52.617Z,62.46
2019-06-26T02:40:23.610Z,62.47
2019-06-26T02:42:53.194Z,63.29
2019-06-26T02:45:22.780Z,63.23
2019-06-26T02:47:52.357Z,62.83
2019-06-26T02:50:21.976Z,62.24
2019-06-26T02:52:51.522Z,62.42
2019-06-26T02:55:21.139Z,62.55
2019-06-26T02:57:50.690Z,63.20
2019-06-26T03:00:21.917Z,63.50
2019-06-26T03:05:26.650Z,63.06
2019-06-26T03:07:56.214Z,62.50
2019-06-26T03:10:25.789Z,63.01
2019-06-26T03:12:55.383Z,63.12
2019-06-26T03:15:25.032Z,63.48
2019-06-26T03:17:55.920Z,63.68
2019-06-26T03:20:30.152Z,62.63
2019-06-26T03:22:59.806Z,63.34
2019-06-26T03:25:29.475Z,63.20
2019-06-26T03:27:59.057Z,63.32
2019-06-26T03:30:28.706Z,63.29
2019-06-26T03:32:58.294Z,62.88
2019-06-26T03:35:27.878Z,63.07
2019-06-26T03:37:57.467Z,63.25
2019-06-26T03:40:27.218Z,62.56
2019-06-26T03:42:56.774Z,63.24
2019-06-26T03:45:26.671Z,63.13
2019-06-26T03:47:56.407Z,63.44
2019-06-26T03:50:26.101Z,64.12
2019-06-26T03:52:55.758Z,62.75
2019-06-26T03:55:25.407Z,64.19
2019-06-26T03:57:54.998Z,63.69
2019-06-26T04:00:32.016Z,62.40
2019-06-26T04:03:01.599Z,62.55
2019-06-26T04:05:31.180Z,61.91
2019-06-26T04:08:00.748Z,62.73
2019-06-26T04:10:30.335Z,62.56
2019-06-26T04:12:59.929Z,62.38
2019-06-26T04:15:41.292Z,62.42
2019-06-26T04:18:00.875Z,61.93
2019-06-26T04:20:30.464Z,62.50
2019-06-26T04:23:00.054Z,62.10
2019-06-26T04:25:29.623Z,62.43
2019-06-26T04:27:59.211Z,61.64
2019-06-26T04:30:28.779Z,61.50
2019-06-26T04:32:58.550Z,61.11
2019-06-26T04:35:28.139Z,61.29
2019-06-26T04:37:57.719Z,61.14
2019-06-26T04:40:27.299Z,62.23
2019-06-26T04:42:56.876Z,63.09
2019-06-26T04:45:26.514Z,62.04
2019-06-26T04:47:56.087Z,61.26
2019-06-26T04:50:27.798Z,60.76
2019-06-26T04:52:57.410Z,60.69
2019-06-26T04:55:26.995Z,60.55
2019-06-26T04:57:56.562Z,61.10
2019-06-26T05:00:26.796Z,61.58
2019-06-26T05:02:56.368Z,62.30
2019-06-26T05:05:38.965Z,61.97
2019-06-26T05:07:57.251Z,61.38
2019-06-26T05:10:26.828Z,60.31
2019-06-26T05:12:56.430Z,60.02
2019-06-26T05:15:26.000Z,59.49
2019-06-26T05:17:55.627Z,59.22
2019-06-26T05:20:25.186Z,58.87
2019-06-26T05:22:54.770Z,59.45
2019-06-26T05:25:24.398Z,58.45
2019-06-26T05:27:53.966Z,58.42
2019-06-26T05:30:24.660Z,58.37
2019-06-26T05:32:54.250Z,57.90
2019-06-26T05:35:23.971Z,57.84
2019-06-26T05:37:54.993Z,58.34
2019-06-26T05:40:24.688Z,58.27
2019-06-26T05:42:54.293Z,57.84
2019-06-26T05:45:24.073Z,57.69
2019-06-26T05:47:53.674Z,57.83
2019-06-26T05:50:23.757Z,57.28
2019-06-26T05:52:53.425Z,57.48
2019-06-26T05:55:24.192Z,56.95
2019-06-26T05:57:53.762Z,56.93
2019-06-26T06:00:23.957Z,56.91
2019-06-26T06:02:54.111Z,56.66
2019-06-26T06:05:23.944Z,56.78
2019-06-26T06:07:53.656Z,56.56
2019-06-26T06:10:24.842Z,56.86
2019-06-26T06:12:54.428Z,56.55
2019-06-26T06:15:24.018Z,56.39
2019-06-26T06:17:53.596Z,56.68
2019-06-26T06:20:30.508Z,56.56
2019-06-26T06:23:00.103Z,57.07
2019-06-26T06:25:31.177Z,56.94
2019-06-26T06:28:02.026Z,56.37
2019-06-26T06:30:31.614Z,56.13
2019-06-26T06:33:01.342Z,56.06
2019-06-26T06:35:30.886Z,55.79
2019-06-26T06:38:00.492Z,55.41
2019-06-26T06:40:30.075Z,55.71
2019-06-26T06:42:59.654Z,55.40
2019-06-26T06:45:29.546Z,55.12
2019-06-26T06:48:00.307Z,54.85
2019-06-26T06:50:30.971Z,54.90
2019-06-26T06:53:00.517Z,54.81
2019-06-26T06:55:30.095Z,54.41
2019-06-26T06:57:59.664Z,54.09
2019-06-26T07:00:29.406Z,54.03
2019-06-26T07:02:58.974Z,53.93
2019-06-26T07:05:28.565Z,54.18
2019-06-26T07:07:58.140Z,53.54
2019-06-26T07:10:27.711Z,53.67
2019-06-26T07:12:57.304Z,53.43
2019-06-26T07:15:28.107Z,53.15
2019-06-26T07:17:57.685Z,52.89
2019-06-26T07:20:27.265Z,52.77
2019-06-26T07:22:58.157Z,52.70
2019-06-26T07:25:27.822Z,52.25
2019-06-26T07:27:57.397Z,52.26
2019-06-26T07:30:27.096Z,51.92
2019-06-26T07:32:56.688Z,52.01
2019-06-26T07:35:26.408Z,51.77
2019-06-26T07:37:59.879Z,51.43
2019-06-26T07:40:27.348Z,51.32
2019-06-26T07:42:56.939Z,50.82
2019-06-26T07:45:27.153Z,50.93
2019-06-26T07:47:57.732Z,50.86
2019-06-26T07:50:27.297Z,50.56
2019-06-26T07:52:56.876Z,50.63
2019-06-26T07:55:26.467Z,50.66
2019-06-26T07:57:56.042Z,50.62
2019-06-26T08:00:25.695Z,50.51
2019-06-26T08:02:56.590Z,50.35
2019-06-26T08:05:26.173Z,50.17
2019-06-26T08:07:57.854Z,50.25
2019-06-26T08:10:27.422Z,50.33
2019-06-26T08:12:57.038Z,49.88
2019-06-26T08:15:26.616Z,49.80
2019-06-26T08:18:00.950Z,49.63
2019-06-26T08:20:27.500Z,49.45
2019-06-26T08:22:57.108Z,49.55
2019-06-26T08:25:26.690Z,49.81
2019-06-26T08:27:56.260Z,50.09
2019-06-26T08:30:26.200Z,49.86
2019-06-26T08:32:55.846Z,49.83
2019-06-26T08:35:25.475Z,49.46
2019-06-26T08:38:09.017Z,49.67
2019-06-26T08:40:26.351Z,49.62
2019-06-26T08:42:56.220Z,49.63
2019-06-26T08:45:25.864Z,49.25
2019-06-26T08:47:55.562Z,49.42
2019-06-26T08:50:25.281Z,49.45
2019-06-26T08:52:54.853Z,49.51
2019-06-26T08:55:24.440Z,49.28
2019-06-26T08:57:54.013Z,49.04
2019-06-26T09:00:23.911Z,48.91
2019-06-26T09:02:53.495Z,48.97
2019-06-26T09:05:23.205Z,49.06
2019-06-26T09:07:52.965Z,48.85
2019-06-26T09:10:22.661Z,48.28
2019-06-26T09:12:55.206Z,48.35
2019-06-26T09:15:24.759Z,48.53
2019-06-26T09:17:55.586Z,48.19
2019-06-26T09:20:29.727Z,47.90
2019-06-26T09:22:59.308Z,47.60
2019-06-26T09:25:28.892Z,47.08
2019-06-26T09:27:58.986Z,47.36
2019-06-26T09:30:28.635Z,47.13
2019-06-26T09:32:58.215Z,47.04
2019-06-26T09:35:27.810Z,47.19
2019-06-26T09:37:58.479Z,47.16
2019-06-26T09:40:31.624Z,46.25
2019-06-26T09:42:59.359Z,46.18
2019-06-26T09:45:29.033Z,46.82
2019-06-26T09:47:58.671Z,46.30
2019-06-26T09:50:29.364Z,46.29
2019-06-26T09:52:58.900Z,46.25
2019-06-26T09:55:33.522Z,46.22
2019-06-26T09:58:03.118Z,46.34
2019-06-26T10:00:33.534Z,45.90
2019-06-26T10:03:03.149Z,46.65
2019-06-26T10:05:32.741Z,47.45
2019-06-26T10:08:02.362Z,47.08
2019-06-26T10:10:31.929Z,46.85
2019-06-26T10:13:01.504Z,47.24
2019-06-26T10:15:31.082Z,46.28
2019-06-26T10:18:00.678Z,45.59
2019-06-26T10:20:31.719Z,45.78
2019-06-26T10:23:01.258Z,44.52
2019-06-26T10:25:30.939Z,44.21
2019-06-26T10:28:00.496Z,44.61
2019-06-26T10:30:30.082Z,44.20
2019-06-26T10:33:00.427Z,44.37
2019-06-26T10:35:30.017Z,44.24
2019-06-26T10:37:59.589Z,43.88
2019-06-26T10:40:30.696Z,43.24
2019-06-26T10:43:00.491Z,41.21
2019-06-26T10:45:30.071Z,42.17
2019-06-26T10:48:01.300Z,41.19
2019-06-26T10:50:30.900Z,40.94
2019-06-26T10:53:00.468Z,41.13
2019-06-26T10:55:30.051Z,40.68
2019-06-26T10:57:59.633Z,40.33
2019-06-26T11:00:30.720Z,40.11
2019-06-26T11:03:00.303Z,40.51
2019-06-26T11:05:29.879Z,40.19
2019-06-26T11:07:59.467Z,40.04
2019-06-26T11:10:29.101Z,40.09
2019-06-26T11:12:58.647Z,39.48
2019-06-26T11:15:28.235Z,39.55
2019-06-26T11:17:59.357Z,38.74
2019-06-26T11:20:29.005Z,38.83
2019-06-26T11:22:58.579Z,38.60
2019-06-26T11:25:28.193Z,36.48
2019-06-26T11:27:59.350Z,36.86
2019-06-26T11:30:29.249Z,36.33
2019-06-26T11:32:58.855Z,36.40
2019-06-26T11:35:28.583Z,35.72
2019-06-26T11:37:58.149Z,34.97
2019-06-26T11:40:29.269Z,35.24
2019-06-26T11:42:58.844Z,35.77
2019-06-26T11:45:28.521Z,35.72
2019-06-26T11:47:58.095Z,35.10
2019-06-26T11:50:27.805Z,35.27
2019-06-26T11:52:57.431Z,36.16
2019-06-26T11:55:27.051Z,35.18
2019-06-26T11:57:57.939Z,35.25
2019-06-26T12:00:29.043Z,34.66
2019-06-26T12:02:58.689Z,34.63
2019-06-26T12:05:28.280Z,34.36
2019-06-26T12:07:57.854Z,33.56
2019-06-26T12:10:27.428Z,32.31
2019-06-26T12:12:57.020Z,32.21
2019-06-26T12:15:26.968Z,32.21
2019-06-26T12:17:56.600Z,31.72
2019-06-26T12:20:26.463Z,31.39
2019-06-26T12:22:56.156Z,31.33
2019-06-26T12:25:25.729Z,30.94
2019-06-26T12:27:55.998Z,30.77
2019-06-26T12:30:26.097Z,30.28
2019-06-26T12:33:02.759Z,29.67
2019-06-26T12:35:27.003Z,29.30
2019-06-26T12:37:56.608Z,29.84
2019-06-26T12:40:26.160Z,29.26
2019-06-26T12:42:55.997Z,29.35
2019-06-26T12:45:26.271Z,28.70
2019-06-26T12:47:57.416Z,28.43
2019-06-26T12:50:35.184Z,25.27
2019-06-26T12:52:59.877Z,24.23
2019-06-26T12:55:32.712Z,22.17
2019-06-26T12:58:12.601Z,21.28
2019-06-26T13:00:32.079Z,20.72
2019-06-26T13:03:01.658Z,19.89
2019-06-26T13:05:32.655Z,18.74
2019-06-26T13:08:02.255Z,19.29
2019-06-26T13:10:45.016Z,17.86
2019-06-26T13:13:03.119Z,18.36
2019-06-26T13:15:32.699Z,18.31
2019-06-26T13:18:02.372Z,17.70
2019-06-26T13:20:31.970Z,16.91
2019-06-26T13:23:01.542Z,15.49
2019-06-26T13:25:31.099Z,15.08
2019-06-26T13:28:00.674Z,14.38
2019-06-26T13:30:40.846Z,12.97
2019-06-26T13:33:12.764Z,14.46
2019-06-26T13:35:42.381Z,14.81
2019-06-26T13:38:11.967Z,13.90
2019-06-26T13:40:41.547Z,14.49
2019-06-26T13:43:12.895Z,14.00
2019-06-26T13:45:42.572Z,12.64
2019-06-26T13:48:12.147Z,12.98
2019-06-26T13:50:41.870Z,11.92
2019-06-26T13:53:11.464Z,12.50
2019-06-26T13:55:42.835Z,14.21
2019-06-26T13:58:12.421Z,15.37
2019-06-26T14:00:42.006Z,15.92
2019-06-26T14:03:11.577Z,14.09
2019-06-26T14:05:41.178Z,12.08
2019-06-26T14:08:10.824Z,12.02
2019-06-26T14:10:40.466Z,12.93
2019-06-26T14:13:10.052Z,11.91
2019-06-26T14:15:39.626Z,11.33
2019-06-26T14:18:09.296Z,11.82
2019-06-26T14:20:38.876Z,11.00
2019-06-26T14:23:08.446Z,11.47
2019-06-26T14:25:38.600Z,11.90
2019-06-26T14:28:09.876Z,11.63
2019-06-26T14:30:39.527Z,12.61
2019-06-26T14:33:10.885Z,12.35
2019-06-26T14:35:40.464Z,12.58
2019-06-26T14:38:10.043Z,12.90
2019-06-26T14:40:39.619Z,12.68
2019-06-26T14:43:09.200Z,13.08
2019-06-26T14:45:38.802Z,13.00
2019-06-26T14:48:08.389Z,14.33
2019-06-26T14:50:38.111Z,13.95
2019-06-26T14:53:07.787Z,16.26
2019-06-26T14:55:37.315Z,15.75
2019-06-26T14:58:06.926Z,15.42
2019-06-26T15:00:36.500Z,14.44
2019-06-26T15:03:06.087Z,13.79
2019-06-26T15:05:35.669Z,13.75
2019-06-26T15:08:05.240Z,13.74
2019-06-26T15:10:34.834Z,13.60
2019-06-26T15:13:04.474Z,13.56
2019-06-26T15:15:34.065Z,13.43
2019-06-26T15:18:03.699Z,14.12
2019-06-26T15:20:34.073Z,14.69
2019-06-26T15:23:03.708Z,15.62
2019-06-26T15:25:33.298Z,15.62
2019-06-26T15:28:02.944Z,15.63
2019-06-26T15:30:32.483Z,15.89
2019-06-26T15:33:02.098Z,15.08
2019-06-26T15:35:31.678Z,17.35
2019-06-26T15:38:01.263Z,18.46
2019-06-26T15:40:30.924Z,18.21
2019-06-26T15:43:01.513Z,20.45
2019-06-26T15:45:31.094Z,20.46
2019-06-26T15:48:00.675Z,20.16
2019-06-26T15:50:30.259Z,21.29
2019-06-26T15:52:59.942Z,21.55
2019-06-26T15:55:29.527Z,23.09
2019-06-26T15:57:59.114Z,23.62
2019-06-26T16:00:29.779Z,23.37
2019-06-26T16:03:02.181Z,23.80
2019-06-26T16:05:34.767Z,24.59
2019-06-26T16:08:05.155Z,23.95
2019-06-26T16:10:35.644Z,23.94
2019-06-26T16:13:06.066Z,23.72
2019-06-26T16:15:36.643Z,24.46
2019-06-26T16:18:09.274Z,24.09
2019-06-26T16:20:38.849Z,26.05
2019-06-26T16:23:08.433Z,27.06
2019-06-26T16:25:38.096Z,26.81
2019-06-26T16:28:13.280Z,26.82
2019-06-26T16:30:42.868Z,27.43
2019-06-26T16:33:12.449Z,26.85
2019-06-26T16:35:42.043Z,27.19
2019-06-26T16:38:11.644Z,26.72
2019-06-26T16:40:41.238Z,27.05
2019-06-26T16:43:10.839Z,27.06
2019-06-26T16:45:40.431Z,27.03
2019-06-26T16:48:10.002Z,27.34
2019-06-26T16:50:39.595Z,28.28
2019-06-26T16:53:09.246Z,28.32
2019-06-26T16:55:38.844Z,28.44
2019-06-26T16:58:08.430Z,29.06
2019-06-26T17:00:38.000Z,28.79
2019-06-26T17:03:07.609Z,28.97
2019-06-26T17:05:37.186Z,29.85
2019-06-26T17:08:06.840Z,29.88
2019-06-26T17:10:36.440Z,30.07
2019-06-26T17:13:06.085Z,32.45
2019-06-26T17:15:37.410Z,30.70
2019-06-26T17:18:07.040Z,30.70
2019-06-26T17:20:36.619Z,31.15
2019-06-26T17:23:07.056Z,31.89
2019-06-26T17:25:36.659Z,32.14
2019-06-26T17:28:07.555Z,32.24
2019-06-26T17:30:37.138Z,32.61
2019-06-26T17:33:06.734Z,32.13
2019-06-26T17:35:36.394Z,32.15
2019-06-26T17:38:05.985Z,32.40
2019-06-26T17:40:35.557Z,32.41
2019-06-26T17:43:12.240Z,32.29
2019-06-26T17:45:38.158Z,32.38
2019-06-26T17:48:07.810Z,32.74
2019-06-26T17:50:37.393Z,32.73
2019-06-26T17:53:20.584Z,32.83
2019-06-26T17:55:38.293Z,32.68
2019-06-26T17:58:07.887Z,33.17
2019-06-26T18:00:37.607Z,33.20
2019-06-26T18:03:07.206Z,33.73
2019-06-26T18:05:36.789Z,33.93
2019-06-26T18:08:06.463Z,33.69
2019-06-26T18:10:36.086Z,34.41
2019-06-26T18:13:05.670Z,34.26
2019-06-26T18:15:35.256Z,34.58
2019-06-26T18:18:04.844Z,35.14
2019-06-26T18:20:34.431Z,35.26
2019-06-26T18:23:07.637Z,35.48
2019-06-26T18:25:35.319Z,35.72
2019-06-26T18:28:04.980Z,35.56
2019-06-26T18:30:34.562Z,35.37
2019-06-26T18:33:04.159Z,35.75
2019-06-26T18:35:33.748Z,35.85
2019-06-26T18:38:03.358Z,35.70
2019-06-26T18:40:32.939Z,35.80
2019-06-26T18:43:03.752Z,35.66
2019-06-26T18:45:35.773Z,36.29
2019-06-26T18:48:05.465Z,36.34
2019-06-26T18:50:38.554Z,37.54
2019-06-26T18:53:09.376Z,37.45
2019-06-26T18:55:38.958Z,37.52
2019-06-26T18:58:08.626Z,37.87
2019-06-26T19:00:38.226Z,38.27
2019-06-26T19:03:09.072Z,39.63
2019-06-26T19:05:38.605Z,39.37
2019-06-26T19:08:08.185Z,39.29
2019-06-26T19:10:37.803Z,39.48
2019-06-26T19:13:07.370Z,40.06
2019-06-26T19:15:37.034Z,40.48
2019-06-26T19:18:06.613Z,40.58
2019-06-26T19:20:37.243Z,40.56
2019-06-26T19:23:06.765Z,40.65
2019-06-26T19:25:36.359Z,40.52
2019-06-26T19:28:06.013Z,41.54
2019-06-26T19:30:35.608Z,42.07
2019-06-26T19:33:05.600Z,42.04
2019-06-26T19:35:35.181Z,41.73
2019-06-26T19:38:04.779Z,42.30
2019-06-26T19:40:34.386Z,42.73
2019-06-26T19:43:04.044Z,43.13
2019-06-26T19:45:33.659Z,42.96
2019-06-26T19:48:03.280Z,43.43
2019-06-26T19:50:32.871Z,43.48
2019-06-26T19:53:02.536Z,44.16
2019-06-26T19:55:33.181Z,44.08
2019-06-26T19:58:02.767Z,44.58
2019-06-26T20:00:32.350Z,44.42
2019-06-26T20:03:01.935Z,44.99
2019-06-26T20:05:31.521Z,44.72
2019-06-26T20:08:01.121Z,44.53
2019-06-26T20:10:30.705Z,45.17
2019-06-26T20:13:01.809Z,45.94
2019-06-26T20:15:31.383Z,45.98
2019-06-26T20:18:04.121Z,46.30
2019-06-26T20:20:32.280Z,46.32
2019-06-26T20:23:01.870Z,47.04
2019-06-26T20:25:31.460Z,47.85
2019-06-26T20:28:01.048Z,48.09
2019-06-26T20:30:33.897Z,48.61
2019-06-26T20:33:03.480Z,47.41
2019-06-26T20:35:33.057Z,48.56
2019-06-26T20:38:02.863Z,48.59
2019-06-26T20:40:32.451Z,48.02
2019-06-26T20:43:02.067Z,47.28
2019-06-26T20:45:31.720Z,46.97
2019-06-26T20:48:01.300Z,47.00
2019-06-26T20:50:30.890Z,46.49
2019-06-26T20:53:00.632Z,46.20
2019-06-26T20:55:30.726Z,46.11
2019-06-26T20:58:00.318Z,46.24
2019-06-26T21:00:29.920Z,45.63
2019-06-26T21:03:00.614Z,45.96
2019-06-26T21:05:30.199Z,45.80
2019-06-26T21:07:59.784Z,45.84
2019-06-26T21:10:29.374Z,45.78
2019-06-26T21:12:58.986Z,45.87
2019-06-26T21:15:28.596Z,46.06
2019-06-26T21:17:58.186Z,46.10
2019-06-26T21:20:29.299Z,46.39
2019-06-26T21:22:58.899Z,46.56
2019-06-26T21:25:28.484Z,46.89
2019-06-26T21:27:58.056Z,46.87
2019-06-26T21:30:29.196Z,47.01
2019-06-26T21:32:58.787Z,46.80
2019-06-26T21:35:28.376Z,47.14
2019-06-26T21:37:59.500Z,48.11
2019-06-26T21:40:29.109Z,48.18
2019-06-26T21:43:01.290Z,47.75
2019-06-26T21:45:30.862Z,47.87
2019-06-26T21:48:00.456Z,48.36
2019-06-26T21:50:30.045Z,51.64
2019-06-26T21:53:01.258Z,49.86
2019-06-26T21:55:34.828Z,49.00
2019-06-26T21:58:02.249Z,49.57
2019-06-26T22:00:33.487Z,50.15
2019-06-26T22:03:03.137Z,48.96
2019-06-26T22:05:32.875Z,49.93
2019-06-26T22:08:04.636Z,49.74
2019-06-26T22:10:34.217Z,50.44
2019-06-26T22:13:03.877Z,51.34
2019-06-26T22:15:33.632Z,50.19
2019-06-26T22:18:03.194Z,50.07
2019-06-26T22:20:34.015Z,50.61
2019-06-26T22:23:03.650Z,49.71
2019-06-26T22:25:41.143Z,50.44
2019-06-26T22:28:04.598Z,50.28
2019-06-26T22:30:34.185Z,50.66
2019-06-26T22:33:03.896Z,50.73
2019-06-26T22:35:33.837Z,51.08
2019-06-26T22:38:03.501Z,52.19
2019-06-26T22:40:33.088Z,51.93
2019-06-26T22:43:03.157Z,53.24
2019-06-26T22:45:32.806Z,51.76
2019-06-26T22:48:03.419Z,50.88
2019-06-26T22:50:33.038Z,52.51
2019-06-26T22:53:02.590Z,51.61
2019-06-26T22:55:32.254Z,51.14
2019-06-26T22:58:01.844Z,52.30
2019-06-26T23:00:31.418Z,52.92
2019-06-26T23:03:01.018Z,51.68
2019-06-26T23:05:30.614Z,52.10
2019-06-26T23:08:00.204Z,51.86
2019-06-26T23:10:29.802Z,52.47
2019-06-26T23:12:59.383Z,52.51
2019-06-26T23:15:28.979Z,52.72
2019-06-26T23:17:58.561Z,52.32
2019-06-26T23:20:28.147Z,52.90
2019-06-26T23:22:57.736Z,53.41
2019-06-26T23:25:27.323Z,54.19
2019-06-26T23:27:56.904Z,54.44
2019-06-26T23:30:27.154Z,55.24
2019-06-26T23:32:56.781Z,55.12
2019-06-26T23:35:26.354Z,55.52
2019-06-26T23:37:56.015Z,55.73
2019-06-26T23:40:25.601Z,56.00
2019-06-26T23:42:56.309Z,55.18
2019-06-26T23:45:25.910Z,54.60
2019-06-26T23:47:57.654Z,55.34
2019-06-26T23:50:27.242Z,55.45
2019-06-26T23:52:56.845Z,55.46
2019-06-26T23:55:26.427Z,54.55
2019-06-26T23:57:59.321Z,55.06
